createdAt,value
2019-02-18T00:02:15.077Z,71.21
2019-02-18T00:04:43.494Z,71.26
2019-02-18T00:07:14.430Z,71.37
2019-02-18T00:09:41.994Z,71.36
2019-02-18T00:12:10.392Z,71.25
2019-02-18T00:14:38.780Z,71.04
2019-02-18T00:17:07.180Z,71.09
2019-02-18T00:19:35.636Z,71.04
2019-02-18T00:22:04.517Z,70.76
2019-02-18T00:24:32.910Z,70.94
2019-02-18T00:27:01.311Z,70.99
2019-02-18T00:29:29.776Z,70.94
2019-02-18T00:31:58.171Z,70.97
2019-02-18T00:34:26.584Z,71.11
2019-02-18T00:36:54.973Z,71.22
2019-02-18T00:39:23.368Z,70.98
2019-02-18T00:41:51.763Z,70.93
2019-02-18T00:44:20.159Z,70.90
2019-02-18T00:46:48.553Z,71.02
2019-02-18T00:49:16.950Z,70.92
2019-02-18T00:51:45.353Z,70.97
2019-02-18T00:54:13.760Z,70.93
2019-02-18T00:56:42.156Z,70.95
2019-02-18T00:59:10.546Z,71.03
2019-02-18T01:01:38.945Z,71.18
2019-02-18T01:04:07.336Z,71.17
2019-02-18T01:06:35.738Z,71.16
2019-02-18T01:09:05.312Z,71.36
2019-02-18T01:11:33.839Z,71.35
2019-02-18T01:14:02.231Z,71.58
2019-02-18T01:16:30.632Z,71.53
2019-02-18T01:18:59.021Z,71.45
2019-02-18T01:21:27.414Z,71.37
2019-02-18T01:23:55.812Z,71.27
2019-02-18T01:26:24.210Z,71.24
2019-02-18T01:28:52.647Z,71.12
2019-02-18T01:31:21.042Z,71.21
2019-02-18T01:33:49.434Z,71.09
2019-02-18T01:36:17.836Z,71.05
2019-02-18T01:38:46.229Z,70.99
2019-02-18T01:41:14.616Z,70.93
2019-02-18T01:43:43.010Z,70.95
2019-02-18T01:46:11.400Z,70.81
2019-02-18T01:48:39.798Z,70.96
2019-02-18T01:51:08.201Z,70.96
2019-02-18T01:53:36.597Z,70.89
2019-02-18T01:56:05.130Z,71.11
2019-02-18T01:58:33.525Z,71.25
2019-02-18T02:01:01.922Z,71.15
2019-02-18T02:03:30.333Z,71.34
2019-02-18T02:05:58.764Z,71.29
2019-02-18T02:08:27.163Z,71.38
2019-02-18T02:10:55.565Z,71.33
2019-02-18T02:13:31.515Z,71.51
2019-02-18T02:16:02.943Z,71.56
2019-02-18T02:18:31.378Z,71.50
2019-02-18T02:20:59.811Z,71.47
2019-02-18T02:23:28.484Z,71.51
2019-02-18T02:25:56.909Z,71.47
2019-02-18T02:28:25.425Z,71.37
2019-02-18T02:30:53.901Z,71.18
2019-02-18T02:33:22.459Z,71.18
2019-02-18T02:35:50.915Z,71.34
2019-02-18T02:38:19.317Z,71.25
2019-02-18T02:40:47.710Z,71.16
2019-02-18T02:43:16.104Z,71.10
2019-02-18T02:45:44.517Z,71.02
2019-02-18T02:48:12.990Z,71.08
2019-02-18T02:50:41.380Z,70.80
2019-02-18T02:53:09.773Z,70.82
2019-02-18T02:55:38.167Z,70.86
2019-02-18T02:58:06.565Z,70.94
2019-02-18T03:00:34.990Z,71.14
2019-02-18T03:03:03.388Z,70.64
2019-02-18T03:05:31.807Z,70.65
2019-02-18T03:08:00.214Z,70.92
2019-02-18T03:10:28.602Z,70.89
2019-02-18T03:12:56.993Z,70.95
2019-02-18T03:15:25.385Z,70.93
2019-02-18T03:17:53.802Z,70.91
2019-02-18T03:20:22.205Z,70.59
2019-02-18T03:22:50.596Z,70.65
2019-02-18T03:25:24.953Z,70.70
2019-02-18T03:27:58.999Z,70.74
2019-02-18T03:30:47.846Z,70.61
2019-02-18T03:33:19.280Z,70.50
2019-02-18T03:35:47.670Z,70.47
2019-02-18T03:38:16.069Z,70.42
2019-02-18T03:40:44.455Z,70.42
2019-02-18T03:43:12.915Z,70.44
2019-02-18T03:45:41.305Z,70.47
2019-02-18T03:48:09.712Z,70.36
2019-02-18T03:50:38.113Z,70.24
2019-02-18T03:53:06.518Z,70.44
2019-02-18T03:55:34.917Z,70.29
2019-02-18T03:58:03.328Z,70.10
2019-02-18T04:00:31.856Z,69.94
2019-02-18T04:03:00.455Z,70.08
2019-02-18T04:05:28.923Z,70.27
2019-02-18T04:07:57.326Z,70.14
2019-02-18T04:10:25.877Z,70.16
2019-02-18T04:12:54.313Z,70.01
2019-02-18T04:15:22.812Z,69.96
2019-02-18T04:17:51.193Z,70.06
2019-02-18T04:20:19.585Z,69.80
2019-02-18T04:22:47.971Z,69.91
2019-02-18T04:25:16.365Z,69.96
2019-02-18T04:27:44.758Z,70.05
2019-02-18T04:30:13.799Z,69.75
2019-02-18T04:32:42.323Z,69.76
2019-02-18T04:35:10.720Z,69.66
2019-02-18T04:37:39.114Z,69.65
2019-02-18T04:40:09.219Z,69.65
2019-02-18T04:42:37.610Z,69.68
2019-02-18T04:45:08.821Z,69.68
2019-02-18T04:47:37.198Z,69.82
2019-02-18T04:50:07.230Z,69.93
2019-02-18T04:52:35.679Z,70.18
2019-02-18T04:55:06.001Z,70.44
2019-02-18T04:57:34.416Z,70.47
2019-02-18T05:00:02.861Z,70.61
2019-02-18T05:02:31.305Z,70.73
2019-02-18T05:04:59.662Z,70.63
2019-02-18T05:07:28.074Z,70.67
2019-02-18T05:09:56.481Z,70.69
2019-02-18T05:12:24.871Z,70.60
2019-02-18T05:14:53.266Z,70.62
2019-02-18T05:17:21.658Z,70.50
2019-02-18T05:19:50.053Z,70.37
2019-02-18T05:22:18.449Z,70.55
2019-02-18T05:24:46.850Z,70.52
2019-02-18T05:27:15.273Z,70.50
2019-02-18T05:29:43.674Z,70.73
2019-02-18T05:32:12.064Z,70.66
2019-02-18T05:34:40.461Z,70.64
2019-02-18T05:37:08.859Z,70.66
2019-02-18T05:39:37.262Z,70.58
2019-02-18T05:42:05.650Z,70.62
2019-02-18T05:44:34.135Z,70.73
2019-02-18T05:47:03.466Z,70.45
2019-02-18T05:49:31.886Z,70.51
2019-02-18T05:52:00.365Z,70.39
2019-02-18T05:54:28.791Z,70.51
2019-02-18T05:56:57.260Z,70.43
2019-02-18T05:59:25.693Z,70.35
2019-02-18T06:01:54.049Z,70.26
2019-02-18T06:04:22.442Z,70.53
2019-02-18T06:06:50.843Z,70.33
2019-02-18T06:09:29.022Z,70.58
2019-02-18T06:11:49.355Z,70.71
2019-02-18T06:14:17.853Z,70.62
2019-02-18T06:16:46.941Z,70.52
2019-02-18T06:19:15.333Z,70.70
2019-02-18T06:21:43.732Z,70.63
2019-02-18T06:24:12.124Z,70.50
2019-02-18T06:26:40.521Z,70.60
2019-02-18T06:29:08.918Z,70.61
2019-02-18T06:31:37.312Z,70.53
2019-02-18T06:34:05.779Z,70.64
2019-02-18T06:36:34.166Z,71.13
2019-02-18T06:39:02.760Z,70.61
2019-02-18T06:41:32.712Z,70.42
2019-02-18T06:44:01.102Z,70.51
2019-02-18T06:46:33.825Z,70.53
2019-02-18T06:49:06.679Z,70.52
2019-02-18T06:51:35.069Z,70.47
2019-02-18T06:54:03.462Z,70.47
2019-02-18T06:56:45.579Z,70.46
2019-02-18T06:59:18.402Z,70.66
2019-02-18T07:01:54.609Z,70.60
2019-02-18T07:04:27.670Z,70.67
2019-02-18T07:07:03.606Z,70.50
2019-02-18T07:09:33.650Z,70.46
2019-02-18T07:12:18.897Z,70.72
2019-02-18T07:14:47.391Z,70.85
2019-02-18T07:17:15.804Z,70.94
2019-02-18T07:19:44.193Z,70.84
2019-02-18T07:22:12.584Z,70.94
2019-02-18T07:24:40.979Z,71.08
2019-02-18T07:27:09.381Z,71.18
2019-02-18T07:29:37.787Z,71.26
2019-02-18T07:32:06.186Z,71.44
2019-02-18T07:34:34.581Z,71.72
2019-02-18T07:37:03.086Z,71.83
2019-02-18T07:39:31.482Z,71.85
2019-02-18T07:41:59.883Z,71.91
2019-02-18T07:44:28.284Z,71.97
2019-02-18T07:46:56.674Z,71.86
2019-02-18T07:49:25.068Z,71.80
2019-02-18T07:51:53.512Z,71.92
2019-02-18T07:54:21.925Z,71.77
2019-02-18T07:56:50.317Z,71.84
2019-02-18T07:59:18.715Z,71.71
2019-02-18T08:01:47.102Z,71.69
2019-02-18T08:04:15.497Z,71.72
2019-02-18T08:06:43.895Z,71.74
2019-02-18T08:09:12.298Z,71.84
2019-02-18T08:11:40.682Z,71.84
2019-02-18T08:14:09.089Z,71.82
2019-02-18T08:16:37.469Z,71.61
2019-02-18T08:19:05.874Z,71.52
2019-02-18T08:21:34.267Z,71.42
2019-02-18T08:24:02.734Z,71.37
2019-02-18T08:26:31.135Z,71.19
2019-02-18T08:28:59.622Z,71.00
2019-02-18T08:31:28.149Z,70.88
2019-02-18T08:33:56.587Z,70.54
2019-02-18T08:36:25.149Z,70.59
2019-02-18T08:38:53.533Z,70.33
2019-02-18T08:41:21.992Z,70.18
2019-02-18T08:43:50.396Z,70.17
2019-02-18T08:46:18.788Z,70.05
2019-02-18T08:48:47.226Z,69.98
2019-02-18T08:51:15.759Z,69.93
2019-02-18T08:53:44.114Z,69.78
2019-02-18T08:56:12.508Z,69.79
2019-02-18T08:58:40.900Z,69.50
2019-02-18T09:01:09.358Z,69.41
2019-02-18T09:03:37.766Z,69.53
2019-02-18T09:06:06.216Z,69.37
2019-02-18T09:08:34.631Z,68.87
2019-02-18T09:11:03.022Z,68.71
2019-02-18T09:13:31.479Z,68.38
2019-02-18T09:16:00.599Z,67.70
2019-02-18T09:18:29.035Z,67.07
2019-02-18T09:20:57.425Z,67.22
2019-02-18T09:23:30.150Z,67.07
2019-02-18T09:25:58.622Z,67.15
2019-02-18T09:28:27.012Z,67.35
2019-02-18T09:30:55.406Z,67.57
2019-02-18T09:33:24.790Z,67.22
2019-02-18T09:35:55.618Z,66.95
2019-02-18T09:38:25.506Z,65.97
2019-02-18T09:40:53.999Z,65.78
2019-02-18T09:43:22.451Z,65.73
2019-02-18T09:45:50.855Z,65.75
2019-02-18T09:48:19.248Z,65.39
2019-02-18T09:50:47.644Z,65.13
2019-02-18T09:53:16.071Z,64.44
2019-02-18T09:55:44.468Z,63.78
2019-02-18T09:58:12.857Z,63.68
2019-02-18T10:00:41.254Z,63.66
2019-02-18T10:03:09.645Z,63.49
2019-02-18T10:05:38.042Z,63.90
2019-02-18T10:08:06.442Z,64.28
2019-02-18T10:10:34.833Z,64.10
2019-02-18T10:13:03.229Z,63.41
2019-02-18T10:15:31.627Z,63.55
2019-02-18T10:18:00.094Z,63.36
2019-02-18T10:20:28.552Z,63.11
2019-02-18T10:22:56.962Z,61.81
2019-02-18T10:25:25.385Z,61.69
2019-02-18T10:27:53.792Z,60.50
2019-02-18T10:30:22.175Z,61.04
2019-02-18T10:32:50.564Z,61.24
2019-02-18T10:35:18.977Z,60.46
2019-02-18T10:37:54.823Z,60.35
2019-02-18T10:40:17.473Z,60.10
2019-02-18T10:42:45.861Z,58.72
2019-02-18T10:45:14.276Z,58.62
2019-02-18T10:47:42.709Z,58.28
2019-02-18T10:50:12.107Z,57.61
2019-02-18T10:52:40.502Z,57.67
2019-02-18T10:55:12.379Z,57.83
2019-02-18T10:57:40.943Z,57.89
2019-02-18T11:00:12.236Z,58.08
2019-02-18T11:02:40.626Z,57.92
2019-02-18T11:05:09.281Z,58.44
2019-02-18T11:07:37.678Z,58.74
2019-02-18T11:10:09.193Z,59.01
2019-02-18T11:12:37.589Z,58.29
2019-02-18T11:15:07.936Z,58.23
2019-02-18T11:17:38.984Z,57.75
2019-02-18T11:20:08.792Z,57.07
2019-02-18T11:22:37.193Z,56.40
2019-02-18T11:25:10.839Z,56.35
2019-02-18T11:27:39.325Z,56.59
2019-02-18T11:30:18.170Z,56.72
2019-02-18T11:32:46.655Z,56.48
2019-02-18T11:35:15.182Z,56.31
2019-02-18T11:37:43.582Z,55.75
2019-02-18T11:40:16.482Z,56.32
2019-02-18T11:42:44.949Z,55.50
2019-02-18T11:45:14.690Z,55.15
2019-02-18T11:47:43.073Z,55.02
2019-02-18T11:50:13.602Z,54.70
2019-02-18T11:52:41.989Z,53.98
2019-02-18T11:55:12.218Z,54.60
2019-02-18T11:57:41.057Z,53.89
2019-02-18T12:00:16.745Z,53.91
2019-02-18T12:02:45.133Z,52.89
2019-02-18T12:05:13.892Z,52.37
2019-02-18T12:07:42.291Z,52.01
2019-02-18T12:10:12.806Z,52.35
2019-02-18T12:12:41.483Z,52.30
2019-02-18T12:15:14.631Z,51.73
2019-02-18T12:17:43.029Z,51.16
2019-02-18T12:20:15.083Z,50.35
2019-02-18T12:22:43.542Z,49.22
2019-02-18T12:25:13.068Z,49.35
2019-02-18T12:27:41.816Z,49.12
2019-02-18T12:30:16.110Z,50.03
2019-02-18T12:32:44.564Z,51.01
2019-02-18T12:35:13.593Z,51.21
2019-02-18T12:37:42.112Z,50.74
2019-02-18T12:40:12.008Z,50.38
2019-02-18T12:42:42.394Z,50.42
2019-02-18T12:45:12.086Z,50.66
2019-02-18T12:47:40.552Z,50.31
2019-02-18T12:50:11.213Z,50.05
2019-02-18T12:52:39.561Z,49.80
2019-02-18T12:55:10.216Z,48.61
2019-02-18T12:57:38.977Z,48.86
2019-02-18T13:00:15.023Z,49.70
2019-02-18T13:02:45.016Z,48.76
2019-02-18T13:05:14.108Z,49.20
2019-02-18T13:07:42.607Z,48.91
2019-02-18T13:10:11.612Z,48.66
2019-02-18T13:12:40.380Z,49.42
2019-02-18T13:15:11.587Z,49.47
2019-02-18T13:17:39.979Z,49.59
2019-02-18T13:20:08.913Z,49.40
2019-02-18T13:22:37.302Z,49.74
2019-02-18T13:25:07.137Z,50.16
2019-02-18T13:27:35.532Z,49.34
2019-02-18T13:30:07.351Z,49.73
2019-02-18T13:32:35.828Z,49.01
2019-02-18T13:35:05.588Z,48.00
2019-02-18T13:37:33.993Z,48.19
2019-02-18T13:40:02.408Z,48.68
2019-02-18T13:42:30.867Z,48.74
2019-02-18T13:44:59.537Z,48.46
2019-02-18T13:47:28.014Z,48.11
2019-02-18T13:49:56.473Z,48.12
2019-02-18T13:52:24.892Z,48.18
2019-02-18T13:54:53.280Z,48.19
2019-02-18T13:57:21.683Z,47.92
2019-02-18T13:59:50.082Z,47.30
2019-02-18T14:02:18.650Z,47.29
2019-02-18T14:04:47.058Z,47.12
2019-02-18T14:07:15.442Z,47.52
2019-02-18T14:09:43.904Z,48.06
2019-02-18T14:12:16.219Z,47.49
2019-02-18T14:14:42.567Z,47.12
2019-02-18T14:17:11.352Z,46.90
2019-02-18T14:19:39.734Z,47.23
2019-02-18T14:22:08.473Z,47.12
2019-02-18T14:24:36.868Z,46.77
2019-02-18T14:27:05.325Z,47.57
2019-02-18T14:29:33.730Z,47.87
2019-02-18T14:32:02.161Z,47.88
2019-02-18T14:34:30.536Z,47.01
2019-02-18T14:36:58.929Z,46.89
2019-02-18T14:39:27.331Z,46.63
2019-02-18T14:41:55.721Z,46.89
2019-02-18T14:44:24.149Z,46.99
2019-02-18T14:46:52.614Z,46.60
2019-02-18T14:49:21.269Z,46.58
2019-02-18T14:51:49.702Z,46.65
2019-02-18T14:54:18.257Z,46.54
2019-02-18T14:56:46.636Z,46.48
2019-02-18T14:59:15.022Z,46.28
2019-02-18T15:01:43.580Z,46.63
2019-02-18T15:04:11.971Z,46.54
2019-02-18T15:06:40.359Z,46.83
2019-02-18T15:09:08.807Z,46.95
2019-02-18T15:11:37.466Z,46.97
2019-02-18T15:14:05.918Z,46.04
2019-02-18T15:16:34.313Z,46.47
2019-02-18T15:19:02.769Z,46.66
2019-02-18T15:21:31.354Z,45.20
2019-02-18T15:23:59.748Z,45.38
2019-02-18T15:26:28.137Z,45.57
2019-02-18T15:28:56.545Z,45.56
2019-02-18T15:31:25.833Z,45.66
2019-02-18T15:33:54.296Z,45.89
2019-02-18T15:36:23.139Z,46.30
2019-02-18T15:38:51.525Z,46.98
2019-02-18T15:41:19.923Z,47.06
2019-02-18T15:43:48.311Z,47.66
2019-02-18T15:46:17.722Z,47.62
2019-02-18T15:48:46.125Z,47.76
2019-02-18T15:51:14.584Z,47.64
2019-02-18T15:53:42.989Z,47.71
2019-02-18T15:56:11.377Z,47.87
2019-02-18T15:58:39.772Z,48.38
2019-02-18T16:01:08.169Z,48.36
2019-02-18T16:03:36.567Z,47.96
2019-02-18T16:06:04.962Z,48.38
2019-02-18T16:08:33.653Z,48.26
2019-02-18T16:11:02.048Z,48.75
2019-02-18T16:13:30.506Z,49.13
2019-02-18T16:15:58.895Z,49.46
2019-02-18T16:18:27.292Z,49.54
2019-02-18T16:20:55.686Z,49.90
2019-02-18T16:23:24.080Z,50.22
2019-02-18T16:25:52.470Z,50.71
2019-02-18T16:28:20.855Z,51.21
2019-02-18T16:30:49.244Z,51.59
2019-02-18T16:33:17.638Z,51.99
2019-02-18T16:35:46.039Z,52.49
2019-02-18T16:38:14.453Z,52.88
2019-02-18T16:40:42.855Z,53.25
2019-02-18T16:43:11.248Z,53.73
2019-02-18T16:45:39.652Z,54.10
2019-02-18T16:48:08.421Z,54.43
2019-02-18T16:50:36.864Z,54.80
2019-02-18T16:53:05.346Z,55.17
2019-02-18T16:55:34.236Z,55.79
2019-02-18T16:58:02.628Z,55.62
2019-02-18T17:00:32.667Z,55.85
2019-02-18T17:03:01.136Z,56.06
2019-02-18T17:05:29.545Z,56.35
2019-02-18T17:07:58.004Z,56.67
2019-02-18T17:10:26.672Z,56.97
2019-02-18T17:12:55.074Z,57.29
2019-02-18T17:15:23.484Z,57.59
2019-02-18T17:17:51.872Z,57.92
2019-02-18T17:20:20.283Z,58.13
2019-02-18T17:22:48.671Z,58.49
2019-02-18T17:25:17.138Z,58.62
2019-02-18T17:27:45.824Z,58.68
2019-02-18T17:30:15.657Z,58.73
2019-02-18T17:32:44.050Z,58.80
2019-02-18T17:35:15.774Z,58.87
2019-02-18T17:37:44.171Z,58.96
2019-02-18T17:40:13.816Z,59.07
2019-02-18T17:42:42.585Z,59.17
2019-02-18T17:45:13.463Z,59.30
2019-02-18T17:47:41.877Z,59.51
2019-02-18T17:50:12.624Z,59.68
2019-02-18T17:52:41.023Z,59.91
2019-02-18T17:55:11.991Z,60.17
2019-02-18T17:57:40.661Z,60.46
2019-02-18T18:00:14.874Z,60.61
2019-02-18T18:02:43.264Z,60.52
2019-02-18T18:05:11.796Z,60.68
2019-02-18T18:07:40.243Z,60.46
2019-02-18T18:10:13.473Z,60.56
2019-02-18T18:12:42.103Z,60.68
2019-02-18T18:15:12.200Z,60.94
2019-02-18T18:17:40.600Z,61.16
2019-02-18T18:20:13.058Z,60.87
2019-02-18T18:22:41.518Z,61.15
2019-02-18T18:25:11.924Z,61.30
2019-02-18T18:27:40.393Z,61.46
2019-02-18T18:30:17.303Z,61.73
2019-02-18T18:32:45.693Z,61.86
2019-02-18T18:35:14.354Z,62.00
2019-02-18T18:37:42.734Z,62.23
2019-02-18T18:40:15.791Z,62.32
2019-02-18T18:42:44.203Z,62.84
2019-02-18T18:45:15.702Z,62.62
2019-02-18T18:47:44.238Z,62.71
2019-02-18T18:50:23.192Z,63.00
2019-02-18T18:52:51.586Z,63.04
2019-02-18T18:55:19.980Z,63.33
2019-02-18T18:57:48.443Z,63.51
2019-02-18T19:00:23.696Z,64.03
2019-02-18T19:02:52.162Z,63.81
2019-02-18T19:05:20.815Z,63.68
2019-02-18T19:07:49.208Z,63.59
2019-02-18T19:10:17.662Z,63.62
2019-02-18T19:12:46.056Z,63.71
2019-02-18T19:15:15.606Z,63.93
2019-02-18T19:17:44.010Z,64.18
2019-02-18T19:20:13.155Z,64.20
2019-02-18T19:22:42.549Z,64.29
2019-02-18T19:25:12.477Z,64.46
2019-02-18T19:27:40.871Z,64.62
2019-02-18T19:30:14.787Z,64.70
2019-02-18T19:32:44.094Z,64.84
2019-02-18T19:35:12.491Z,65.01
2019-02-18T19:37:40.894Z,65.22
2019-02-18T19:40:11.749Z,65.61
2019-02-18T19:42:41.081Z,65.71
2019-02-18T19:45:12.710Z,65.74
2019-02-18T19:47:41.411Z,65.91
2019-02-18T19:50:09.918Z,65.91
2019-02-18T19:52:38.331Z,65.93
2019-02-18T19:55:09.218Z,65.86
2019-02-18T19:57:37.669Z,65.95
2019-02-18T20:00:17.487Z,66.02
2019-02-18T20:02:45.942Z,66.13
2019-02-18T20:05:14.567Z,66.16
2019-02-18T20:07:44.279Z,66.03
2019-02-18T20:10:13.394Z,66.02
2019-02-18T20:12:41.801Z,66.01
2019-02-18T20:15:13.132Z,66.01
2019-02-18T20:17:41.524Z,66.06
2019-02-18T20:20:12.515Z,66.17
2019-02-18T20:22:40.912Z,66.31
2019-02-18T20:25:09.845Z,66.42
2019-02-18T20:27:38.303Z,66.54
2019-02-18T20:30:12.340Z,66.63
2019-02-18T20:32:40.746Z,66.56
2019-02-18T20:35:10.576Z,66.68
2019-02-18T20:37:39.944Z,66.84
2019-02-18T20:40:09.708Z,66.73
2019-02-18T20:42:38.586Z,66.74
2019-02-18T20:45:11.662Z,66.78
2019-02-18T20:47:42.058Z,66.73
2019-02-18T20:50:12.022Z,66.80
2019-02-18T20:52:40.548Z,66.91
2019-02-18T20:55:11.296Z,67.08
2019-02-18T20:57:39.684Z,67.12
2019-02-18T21:00:12.535Z,67.02
2019-02-18T21:02:40.999Z,66.99
2019-02-18T21:05:09.476Z,67.33
2019-02-18T21:07:37.868Z,67.19
2019-02-18T21:10:11.757Z,67.35
2019-02-18T21:12:40.207Z,67.45
2019-02-18T21:15:09.250Z,67.47
2019-02-18T21:17:37.643Z,67.51
2019-02-18T21:20:08.499Z,67.65
2019-02-18T21:22:37.749Z,68.69
2019-02-18T21:25:08.375Z,68.73
2019-02-18T21:27:36.783Z,68.34
2019-02-18T21:30:08.245Z,68.43
2019-02-18T21:32:36.685Z,68.46
2019-02-18T21:35:06.467Z,68.34
2019-02-18T21:37:34.866Z,68.31
2019-02-18T21:40:04.267Z,68.27
2019-02-18T21:42:33.623Z,68.40
2019-02-18T21:45:02.038Z,68.37
2019-02-18T21:47:30.442Z,68.43
2019-02-18T21:49:58.841Z,68.48
2019-02-18T21:52:27.243Z,68.66
2019-02-18T21:54:56.013Z,68.71
2019-02-18T21:57:24.429Z,68.70
2019-02-18T21:59:52.830Z,68.74
2019-02-18T22:02:21.233Z,68.77
2019-02-18T22:04:49.690Z,68.69
2019-02-18T22:07:18.083Z,68.65
2019-02-18T22:09:46.478Z,68.77
2019-02-18T22:12:14.876Z,68.66
2019-02-18T22:14:43.258Z,68.66
2019-02-18T22:17:11.657Z,68.71
2019-02-18T22:19:40.055Z,68.63
2019-02-18T22:22:08.458Z,68.80
2019-02-18T22:24:36.853Z,68.68
2019-02-18T22:27:05.353Z,68.81
2019-02-18T22:29:33.739Z,68.95
2019-02-18T22:32:02.128Z,68.68
2019-02-18T22:34:30.541Z,68.69
2019-02-18T22:36:58.909Z,68.67
2019-02-18T22:39:27.298Z,68.74
2019-02-18T22:41:55.687Z,68.63
2019-02-18T22:44:24.077Z,68.81
2019-02-18T22:46:52.468Z,69.09
2019-02-18T22:49:20.866Z,69.01
2019-02-18T22:51:49.262Z,68.92
2019-02-18T22:54:17.644Z,68.93
2019-02-18T22:56:46.105Z,69.07
2019-02-18T22:59:14.505Z,69.08
2019-02-18T23:01:42.900Z,69.46
2019-02-18T23:04:11.298Z,69.83
2019-02-18T23:06:39.709Z,69.61
2019-02-18T23:09:09.796Z,69.57
2019-02-18T23:11:38.196Z,69.69
2019-02-18T23:14:07.262Z,69.83
2019-02-18T23:16:35.654Z,69.83
2019-02-18T23:19:04.426Z,69.57
2019-02-18T23:21:32.829Z,69.73
2019-02-18T23:24:01.227Z,69.91
2019-02-18T23:26:29.636Z,70.02
2019-02-18T23:28:58.029Z,69.89
2019-02-18T23:31:26.428Z,69.65
2019-02-18T23:33:54.824Z,69.76
2019-02-18T23:36:23.408Z,69.59
2019-02-18T23:38:51.811Z,69.46
2019-02-18T23:41:20.206Z,69.44
2019-02-18T23:43:48.601Z,69.39
2019-02-18T23:46:16.995Z,69.28
2019-02-18T23:48:45.393Z,69.31
2019-02-18T23:51:13.834Z,69.36
2019-02-18T23:53:42.179Z,69.40
2019-02-18T23:56:10.568Z,69.51
2019-02-18T23:58:38.973Z,69.74
